createdAt,value
2018-01-30T00:00:56.425Z,99.90
2018-01-30T00:03:24.846Z,99.90
2018-01-30T00:05:52.478Z,99.90
2018-01-30T00:08:20.168Z,99.90
2018-01-30T00:10:47.843Z,99.90
2018-01-30T00:13:15.878Z,99.90
2018-01-30T00:15:43.550Z,99.90
2018-01-30T00:18:11.093Z,99.90
2018-01-30T00:20:39.646Z,99.90
2018-01-30T00:23:07.324Z,99.90
2018-01-30T00:25:35.033Z,99.90
2018-01-30T00:28:02.726Z,99.90
2018-01-30T00:30:31.098Z,99.90
2018-01-30T00:32:58.975Z,99.90
2018-01-30T00:35:26.894Z,99.90
2018-01-30T00:37:54.598Z,99.90
2018-01-30T00:40:22.235Z,99.90
2018-01-30T00:42:49.823Z,99.90
2018-01-30T00:45:18.514Z,99.90
2018-01-30T00:47:46.124Z,99.90
2018-01-30T00:50:13.839Z,99.90
2018-01-30T00:52:41.431Z,99.90
2018-01-30T00:55:09.047Z,99.90
2018-01-30T00:57:37.005Z,99.90
2018-01-30T01:00:04.585Z,99.90
2018-01-30T01:02:32.114Z,99.90
2018-01-30T01:04:59.914Z,99.90
2018-01-30T01:07:28.268Z,99.90
2018-01-30T01:09:56.347Z,99.90
2018-01-30T01:12:24.017Z,99.90
2018-01-30T01:14:51.692Z,99.90
2018-01-30T01:17:19.285Z,99.90
2018-01-30T01:19:47.023Z,99.90
2018-01-30T01:22:16.213Z,99.90
2018-01-30T01:24:43.821Z,99.90
2018-01-30T01:27:12.601Z,99.90
2018-01-30T01:29:40.981Z,99.90
2018-01-30T01:32:08.544Z,99.90
2018-01-30T01:34:36.966Z,99.90
2018-01-30T01:37:04.613Z,99.90
2018-01-30T01:39:32.358Z,99.90
2018-01-30T01:42:00.016Z,99.90
2018-01-30T01:44:29.318Z,99.90
2018-01-30T01:46:57.111Z,99.90
2018-01-30T01:49:30.840Z,99.90
2018-01-30T01:51:58.437Z,99.90
2018-01-30T01:54:26.123Z,99.90
2018-01-30T01:56:53.646Z,99.90
2018-01-30T01:59:22.192Z,99.90
2018-01-30T02:01:49.790Z,99.90
2018-01-30T02:04:17.657Z,99.90
2018-01-30T02:06:45.234Z,99.90
2018-01-30T02:09:12.904Z,99.90
2018-01-30T02:11:40.738Z,99.90
2018-01-30T02:14:08.281Z,99.90
2018-01-30T02:16:36.000Z,99.90
2018-01-30T02:19:03.569Z,99.90
2018-01-30T02:21:31.934Z,99.90
2018-01-30T02:24:14.124Z,99.90
2018-01-30T02:26:41.767Z,99.90
2018-01-30T02:29:09.453Z,99.90
2018-01-30T02:31:37.936Z,99.90
2018-01-30T02:34:05.614Z,99.90
2018-01-30T02:36:33.278Z,99.90
2018-01-30T02:39:00.928Z,99.90
2018-01-30T02:41:29.311Z,99.90
2018-01-30T02:43:57.750Z,99.90
2018-01-30T02:46:26.582Z,99.90
2018-01-30T02:48:54.613Z,99.90
2018-01-30T02:51:22.205Z,99.90
2018-01-30T02:53:49.786Z,99.90
2018-01-30T02:56:17.492Z,99.90
2018-01-30T02:58:45.868Z,99.90
2018-01-30T03:01:13.571Z,99.90
2018-01-30T03:03:41.916Z,99.90
2018-01-30T03:06:09.504Z,99.90
2018-01-30T03:08:37.237Z,99.90
2018-01-30T03:11:05.121Z,99.90
2018-01-30T03:13:34.174Z,99.90
2018-01-30T03:16:01.882Z,99.90
2018-01-30T03:18:29.486Z,99.90
2018-01-30T03:20:57.152Z,99.90
2018-01-30T03:23:24.840Z,99.90
2018-01-30T03:25:52.511Z,99.90
2018-01-30T03:28:20.225Z,99.90
2018-01-30T03:30:48.783Z,99.90
2018-01-30T03:33:16.435Z,99.90
2018-01-30T03:35:44.268Z,99.90
2018-01-30T03:38:12.241Z,99.90
2018-01-30T03:40:39.927Z,99.90
2018-01-30T03:43:08.360Z,99.90
2018-01-30T03:45:36.101Z,99.90
2018-01-30T03:48:04.596Z,99.90
2018-01-30T03:50:32.254Z,99.90
2018-01-30T03:53:00.912Z,99.90
2018-01-30T03:55:28.734Z,99.90
2018-01-30T03:57:56.298Z,99.90
2018-01-30T04:00:24.785Z,99.90
2018-01-30T04:02:52.373Z,99.90
2018-01-30T04:05:20.032Z,99.90
2018-01-30T04:07:47.685Z,99.90
2018-01-30T04:10:15.342Z,99.90
2018-01-30T04:12:43.407Z,99.90
2018-01-30T04:15:11.267Z,99.90
2018-01-30T04:17:40.979Z,99.90
2018-01-30T04:20:08.682Z,99.90
2018-01-30T04:22:36.798Z,99.90
2018-01-30T04:25:05.225Z,99.90
2018-01-30T04:27:32.880Z,99.90
2018-01-30T04:30:00.733Z,99.90
2018-01-30T04:32:28.563Z,99.90
2018-01-30T04:34:56.149Z,99.90
2018-01-30T04:37:25.200Z,99.90
2018-01-30T04:39:53.013Z,99.90
2018-01-30T04:42:21.417Z,99.90
2018-01-30T04:44:49.220Z,99.90
2018-01-30T04:47:16.872Z,99.90
2018-01-30T04:49:44.899Z,99.90
2018-01-30T04:52:14.271Z,99.90
2018-01-30T04:54:41.930Z,99.90
2018-01-30T04:57:10.284Z,99.90
2018-01-30T04:59:38.003Z,99.90
2018-01-30T05:02:08.358Z,99.90
2018-01-30T05:04:36.237Z,99.90
2018-01-30T05:07:03.976Z,99.90
2018-01-30T05:09:31.536Z,99.90
2018-01-30T05:11:59.193Z,99.90
2018-01-30T05:14:27.344Z,99.90
2018-01-30T05:16:56.994Z,99.90
2018-01-30T05:19:24.719Z,99.90
2018-01-30T05:21:53.276Z,99.90
2018-01-30T05:24:21.896Z,99.90
2018-01-30T05:26:49.612Z,99.90
2018-01-30T05:29:17.401Z,99.90
2018-01-30T05:31:45.053Z,99.90
2018-01-30T05:34:12.750Z,99.90
2018-01-30T05:36:40.442Z,99.90
2018-01-30T05:39:08.054Z,99.90
2018-01-30T05:41:35.601Z,99.90
2018-01-30T05:44:04.123Z,99.90
2018-01-30T05:46:31.708Z,99.90
2018-01-30T05:48:59.287Z,99.90
2018-01-30T05:51:27.884Z,99.90
2018-01-30T05:53:55.798Z,99.90
2018-01-30T05:56:24.166Z,99.90
2018-01-30T05:58:51.924Z,99.90
2018-01-30T06:01:21.052Z,99.90
2018-01-30T06:03:48.798Z,99.90
2018-01-30T06:06:16.871Z,99.90
2018-01-30T06:08:44.959Z,99.90
2018-01-30T06:11:12.570Z,99.90
2018-01-30T06:13:40.134Z,99.90
2018-01-30T06:16:09.039Z,99.90
2018-01-30T06:18:37.465Z,99.90
2018-01-30T06:21:05.300Z,99.90
2018-01-30T06:23:33.738Z,99.90
2018-01-30T06:26:01.492Z,99.90
2018-01-30T06:28:29.140Z,99.90
2018-01-30T06:30:56.907Z,99.90
2018-01-30T06:33:25.258Z,99.90
2018-01-30T06:35:52.830Z,99.90
2018-01-30T06:38:21.173Z,99.90
2018-01-30T06:43:18.575Z,99.90
2018-01-30T06:45:46.193Z,99.90
2018-01-30T06:48:14.690Z,99.90
2018-01-30T06:50:42.746Z,99.90
2018-01-30T06:53:11.123Z,99.90
2018-01-30T07:15:35.532Z,99.90
2018-01-30T07:18:03.224Z,99.90
2018-01-30T07:20:30.868Z,99.90
2018-01-30T07:22:58.636Z,99.90
2018-01-30T07:25:26.275Z,99.90
2018-01-30T07:27:54.224Z,99.90
2018-01-30T07:30:21.834Z,99.90
2018-01-30T07:32:49.412Z,99.90
2018-01-30T07:35:17.117Z,99.90
2018-01-30T07:37:45.668Z,99.90
2018-01-30T07:40:15.244Z,99.90
2018-01-30T07:42:42.855Z,99.90
2018-01-30T07:47:39.365Z,99.90
2018-01-30T07:50:07.017Z,99.90
2018-01-30T07:52:34.987Z,99.90
2018-01-30T07:55:02.547Z,99.90
2018-01-30T07:57:30.463Z,99.90
2018-01-30T07:59:58.072Z,99.90
2018-01-30T08:02:25.791Z,99.90
2018-01-30T08:04:53.540Z,99.90
2018-01-30T08:07:22.605Z,99.90
2018-01-30T08:09:51.066Z,99.90
2018-01-30T08:12:18.742Z,99.90
2018-01-30T08:14:46.639Z,99.90
2018-01-30T08:17:14.327Z,99.90
2018-01-30T08:19:42.912Z,99.90
2018-01-30T08:22:10.683Z,99.90
2018-01-30T08:24:39.054Z,99.90
2018-01-30T08:29:35.787Z,99.90
2018-01-30T08:32:03.535Z,99.90
2018-01-30T08:34:31.939Z,99.90
2018-01-30T08:37:00.283Z,99.90
2018-01-30T08:39:27.947Z,99.90
2018-01-30T08:41:55.818Z,99.90
2018-01-30T08:44:23.617Z,99.90
2018-01-30T08:46:51.389Z,99.90
2018-01-30T08:49:19.824Z,99.90
2018-01-30T08:51:47.394Z,99.90
2018-01-30T08:54:15.993Z,99.90
2018-01-30T08:56:43.870Z,99.90
2018-01-30T08:59:11.642Z,99.90
2018-01-30T09:01:39.192Z,99.90
2018-01-30T09:04:07.507Z,99.90
2018-01-30T09:06:35.990Z,99.90
2018-01-30T09:09:03.674Z,99.90
2018-01-30T09:11:31.374Z,99.90
2018-01-30T09:13:59.036Z,99.90
2018-01-30T09:16:26.756Z,99.90
2018-01-30T09:18:54.647Z,99.90
2018-01-30T09:21:22.457Z,99.90
2018-01-30T09:23:50.083Z,99.90
2018-01-30T09:26:17.766Z,99.90
2018-01-30T09:28:45.419Z,99.90
2018-01-30T09:31:13.168Z,99.90
2018-01-30T09:33:40.961Z,99.90
2018-01-30T09:36:08.731Z,99.90
2018-01-30T09:38:37.216Z,99.90
2018-01-30T09:41:04.891Z,99.90
2018-01-30T09:43:33.609Z,99.90
2018-01-30T09:46:01.171Z,99.90
2018-01-30T09:48:28.894Z,99.90
2018-01-30T09:50:56.619Z,99.90
2018-01-30T09:53:24.396Z,99.90
2018-01-30T09:55:52.220Z,99.90
2018-01-30T09:58:20.707Z,99.90
2018-01-30T10:00:49.028Z,99.90
2018-01-30T10:03:16.651Z,99.90
2018-01-30T10:05:44.406Z,99.90
2018-01-30T10:08:12.186Z,99.90
2018-01-30T10:10:40.684Z,99.90
2018-01-30T10:13:08.844Z,99.90
2018-01-30T10:15:36.474Z,99.90
2018-01-30T10:18:04.905Z,99.90
2018-01-30T10:20:32.771Z,99.90
2018-01-30T10:23:00.387Z,99.90
2018-01-30T10:25:28.083Z,99.90
2018-01-30T10:27:55.665Z,99.90
2018-01-30T10:30:23.389Z,99.90
2018-01-30T10:32:52.655Z,99.90
2018-01-30T10:35:21.213Z,99.90
2018-01-30T10:37:48.905Z,99.90
2018-01-30T10:40:16.486Z,99.90
2018-01-30T10:42:44.083Z,99.90
2018-01-30T10:45:13.130Z,99.90
2018-01-30T10:47:41.545Z,99.90
2018-01-30T10:50:09.136Z,99.90
2018-01-30T10:52:36.775Z,99.90
2018-01-30T10:55:04.328Z,99.90
2018-01-30T10:57:31.874Z,99.90
2018-01-30T11:00:00.388Z,99.90
2018-01-30T11:02:28.205Z,99.90
2018-01-30T11:04:56.015Z,99.90
2018-01-30T11:07:23.598Z,99.90
2018-01-30T11:09:51.194Z,99.90
2018-01-30T11:12:19.239Z,99.90
2018-01-30T11:14:46.795Z,99.90
2018-01-30T11:17:14.642Z,99.90
2018-01-30T11:19:42.195Z,99.20
2018-01-30T11:22:09.998Z,98.10
2018-01-30T11:24:37.797Z,97.90
2018-01-30T11:27:06.203Z,99.30
2018-01-30T11:29:33.979Z,99.00
2018-01-30T11:32:02.347Z,98.60
2018-01-30T11:34:30.059Z,97.90
2018-01-30T11:36:58.955Z,98.90
2018-01-30T11:39:29.373Z,97.10
2018-01-30T11:41:56.990Z,97.60
2018-01-30T11:44:25.350Z,97.20
2018-01-30T11:46:55.255Z,96.40
2018-01-30T11:49:24.299Z,95.90
2018-01-30T11:51:51.887Z,95.30
2018-01-30T11:54:19.471Z,94.40
2018-01-30T11:56:48.806Z,94.70
2018-01-30T11:59:17.216Z,95.50
2018-01-30T12:01:48.461Z,96.20
2018-01-30T12:04:19.483Z,90.20
2018-01-30T12:06:48.186Z,89.70
2018-01-30T12:09:17.254Z,83.10
2018-01-30T12:11:46.383Z,87.60
2018-01-30T12:14:13.957Z,88.00
2018-01-30T12:24:12.260Z,84.70
2018-01-30T12:26:42.629Z,81.60
2018-01-30T12:29:10.398Z,85.50
2018-01-30T12:31:38.185Z,86.60
2018-01-30T12:34:06.688Z,89.50
2018-01-30T12:36:34.247Z,88.40
2018-01-30T12:39:01.778Z,88.50
2018-01-30T12:41:30.201Z,89.50
2018-01-30T12:43:58.559Z,88.40
2018-01-30T12:46:26.205Z,86.10
2018-01-30T12:48:55.559Z,83.00
2018-01-30T12:51:23.522Z,82.00
2018-01-30T12:53:52.387Z,81.90
2018-01-30T12:56:19.959Z,83.10
2018-01-30T12:58:47.721Z,82.40
2018-01-30T13:01:15.340Z,82.70
2018-01-30T13:03:43.732Z,86.40
2018-01-30T13:06:12.494Z,95.90
2018-01-30T13:13:39.654Z,99.20
2018-01-30T13:16:08.879Z,99.90
2018-01-30T13:18:37.127Z,99.90
2018-01-30T13:21:05.142Z,99.80
2018-01-30T13:23:34.069Z,99.30
2018-01-30T13:26:02.583Z,99.80
2018-01-30T14:20:42.165Z,94.60
2018-01-30T14:28:09.049Z,96.30
2018-01-30T14:30:36.604Z,95.40
2018-01-30T14:33:04.396Z,95.70
2018-01-30T14:42:59.412Z,96.90
2018-01-30T14:45:28.654Z,97.00
2018-01-30T15:22:44.842Z,97.20
2018-01-30T15:30:15.773Z,97.40
2018-01-30T15:47:38.781Z,97.50
2018-01-30T15:50:07.290Z,90.30
2018-01-30T15:52:36.258Z,90.30
2018-01-30T15:55:03.961Z,91.30
2018-01-30T15:57:31.568Z,98.00
2018-01-30T15:59:59.228Z,98.20
2018-01-30T16:07:24.734Z,99.90
2018-01-30T16:09:52.306Z,99.90
2018-01-30T16:12:20.229Z,99.90
2018-01-30T16:14:48.504Z,99.90
2018-01-30T16:17:16.093Z,99.90
2018-01-30T16:19:43.806Z,99.90
2018-01-30T16:24:42.571Z,99.90
2018-01-30T16:27:10.212Z,99.90
2018-01-30T16:29:37.925Z,99.90
2018-01-30T16:32:05.659Z,99.90
2018-01-30T16:34:33.213Z,99.90
2018-01-30T16:37:01.566Z,99.90
2018-01-30T16:39:29.225Z,99.90
